Time;durP1;ratioP1;P1;durP2;ratioP2;P2;SDS_P1;SDS_P2;PMS_P1;PMS_P2;Temp;Humidity;BMP_temperature;BMP_pressure;BME280_temperature;BME280_humidity;BME280_pressure;Samples;Min_cycle;Max_cycle;Signal;HPM_P1;HPM_P2
2022/09/01 00:00:48;;;;;;;0.93;0.50;;;17.10;99.80;;;;;;10474337;28;20055;-85
2022/09/01 00:05:53;;;;;;;2.28;0.50;;;17.00;99.90;;;;;;10480249;28;20281;-85
2022/09/01 00:10:55;;;;;;;7.85;0.60;;;16.80;99.80;;;;;;10481916;28;20047;-84
2022/09/01 00:15:58;;;;;;;1.02;0.40;;;16.70;99.90;;;;;;10477634;28;20091;-84
2022/09/01 00:21:00;;;;;;;1.20;0.38;;;16.70;99.90;;;;;;10502418;28;20068;-84
2022/09/01 00:26:02;;;;;;;0.77;0.50;;;16.60;99.90;;;;;;10483590;28;20056;-84
2022/09/01 00:31:06;;;;;;;0.50;0.40;;;16.50;99.90;;;;;;10464893;28;20045;-84
2022/09/01 00:36:08;;;;;;;1.73;0.50;;;16.40;99.90;;;;;;10487119;28;20485;-83
2022/09/01 00:41:11;;;;;;;3.15;0.52;;;16.30;99.90;;;;;;10482813;28;20041;-84
2022/09/01 00:46:20;;;;;;;3.75;0.63;;;16.20;99.90;;;;;;10494458;28;20059;-83
2022/09/01 00:51:23;;;;;;;4.03;0.82;;;16.20;99.90;;;;;;10469875;28;20048;-84
2022/09/01 00:56:25;;;;;;;1.60;0.57;;;16.10;99.90;;;;;;10498023;28;20040;-84
2022/09/01 01:01:27;;;;;;;3.55;1.13;;;16.10;99.90;;;;;;10496447;28;20115;-84
2022/09/01 01:06:30;;;;;;;3.13;0.88;;;16.00;99.90;;;;;;10498368;28;20041;-83
2022/09/01 01:11:32;;;;;;;3.85;0.75;;;15.90;99.90;;;;;;10479060;28;20072;-83
2022/09/01 01:16:35;;;;;;;2.35;0.70;;;15.90;99.90;;;;;;10483397;28;20046;-84
2022/09/01 01:27:04;;;;;;;3.70;0.73;;;15.70;99.90;;;;;;10480293;28;20073;-83
2022/09/01 01:32:11;;;;;;;3.25;0.70;;;15.70;99.90;;;;;;10501172;28;20048;-84
2022/09/01 01:37:14;;;;;;;1.27;0.60;;;15.60;99.90;;;;;;10475596;28;20144;-84
2022/09/01 01:42:15;;;;;;;2.53;0.55;;;15.50;99.90;;;;;;10503185;28;20048;-84
2022/09/01 01:47:19;;;;;;;1.13;0.60;;;15.50;99.90;;;;;;10482816;28;20052;-84
2022/09/01 01:52:21;;;;;;;1.45;0.77;;;15.40;99.90;;;;;;10494911;28;20151;-84
2022/09/01 01:57:30;;;;;;;1.80;0.80;;;15.40;99.90;;;;;;10483270;28;20044;-84
2022/09/01 02:02:32;;;;;;;2.13;0.68;;;15.40;99.90;;;;;;10484502;28;20051;-84
2022/09/01 02:07:36;;;;;;;3.17;0.82;;;15.30;99.90;;;;;;10485225;28;20052;-84
2022/09/01 02:12:40;;;;;;;0.70;0.57;;;15.30;99.90;;;;;;10482527;28;20047;-83
2022/09/01 02:17:43;;;;;;;2.03;0.70;;;15.30;99.90;;;;;;10500097;28;20047;-83
2022/09/01 02:22:45;;;;;;;2.28;0.75;;;15.20;99.90;;;;;;10472770;28;20471;-82
2022/09/01 02:27:54;;;;;;;3.53;1.02;;;15.10;99.90;;;;;;10490328;28;20043;-83
2022/09/01 02:32:57;;;;;;;1.30;0.65;;;15.10;99.90;;;;;;10489423;28;20466;-83
2022/09/01 02:38:00;;;;;;;1.52;0.80;;;15.00;99.90;;;;;;10499430;28;20135;-83
2022/09/01 02:43:02;;;;;;;2.05;0.90;;;15.00;99.90;;;;;;10475331;28;20087;-85
2022/09/01 02:48:08;;;;;;;1.25;0.93;;;15.00;99.90;;;;;;10497927;28;20247;-84
2022/09/01 02:53:14;;;;;;;6.30;0.98;;;14.90;99.90;;;;;;10489013;28;20048;-84
2022/09/01 02:58:17;;;;;;;1.95;0.93;;;14.80;99.90;;;;;;10497657;28;20131;-85
2022/09/01 03:03:20;;;;;;;3.72;0.98;;;14.80;99.90;;;;;;10450217;28;20110;-85
2022/09/01 03:08:23;;;;;;;2.83;0.93;;;14.70;99.90;;;;;;10441877;28;20075;-84
2022/09/01 03:13:27;;;;;;;1.15;0.70;;;14.70;99.90;;;;;;10456334;28;20047;-84
2022/09/01 03:18:29;;;;;;;1.60;0.98;;;14.60;99.90;;;;;;10495714;28;20042;-84
2022/09/01 03:23:32;;;;;;;2.33;0.90;;;14.60;99.90;;;;;;10493933;28;20048;-84
2022/09/01 03:28:36;;;;;;;1.55;0.75;;;14.50;99.90;;;;;;10483358;28;20056;-83
2022/09/01 03:33:38;;;;;;;1.73;1.15;;;14.50;99.90;;;;;;10492592;28;20124;-83
2022/09/01 03:38:42;;;;;;;3.92;1.10;;;14.50;99.90;;;;;;10478361;28;20523;-84
2022/09/01 03:43:45;;;;;;;2.63;0.88;;;14.40;99.90;;;;;;10488043;28;20308;-84
2022/09/01 03:48:54;;;;;;;1.58;0.63;;;14.40;99.90;;;;;;10483472;28;20632;-84
2022/09/01 03:53:57;;;;;;;;;;;14.30;99.90;;;;;;10478761;28;20041;-82
2022/09/01 03:59:00;;;;;;;2.13;0.80;;;14.30;99.90;;;;;;10497510;28;20477;-83
2022/09/01 04:04:05;;;;;;;1.48;0.70;;;14.30;99.90;;;;;;10471082;28;20040;-84
2022/09/01 04:09:09;;;;;;;2.28;0.77;;;14.20;99.90;;;;;;10437219;28;20048;-84
2022/09/01 04:14:12;;;;;;;2.22;0.73;;;14.20;99.90;;;;;;10467262;28;20113;-84
2022/09/01 04:19:25;;;;;;;1.65;0.80;;;14.20;99.90;;;;;;10468263;28;20056;-84
2022/09/01 04:24:29;;;;;;;1.00;0.70;;;14.10;99.90;;;;;;10478004;28;20060;-84
2022/09/01 04:29:32;;;;;;;1.73;0.70;;;14.10;99.90;;;;;;10495232;28;20509;-83
2022/09/01 04:34:37;;;;;;;2.22;0.70;;;14.10;99.90;;;;;;10494563;28;20058;-84
2022/09/01 04:39:47;;;;;;;1.85;0.77;;;14.10;99.90;;;;;;10481176;28;20043;-83
2022/09/01 04:44:56;;;;;;;1.80;0.90;;;14.10;99.90;;;;;;10481906;28;20048;-82
2022/09/01 04:49:59;;;;;;;1.58;0.70;;;14.10;99.90;;;;;;10497130;28;20052;-82
2022/09/01 04:55:02;;;;;;;1.08;0.68;;;14.10;99.90;;;;;;10498163;28;20032;-90
2022/09/01 05:00:04;;;;;;;1.20;0.60;;;14.10;99.90;;;;;;10458865;28;20059;-90
2022/09/01 05:05:11;;;;;;;3.88;0.73;;;14.10;99.90;;;;;;10402554;28;20040;-89
2022/09/01 05:10:21;;;;;;;1.83;0.95;;;14.10;99.90;;;;;;10382726;28;20044;-92
2022/09/01 05:15:23;;;;;;;1.17;0.70;;;14.10;99.90;;;;;;10457911;28;20078;-92
2022/09/01 05:20:30;;;;;;;1.23;0.50;;;14.10;99.90;;;;;;10455659;28;20041;-92
2022/09/01 05:25:53;;;;;;;1.25;0.60;;;14.20;99.90;;;;;;10367151;28;20062;-91
2022/09/01 05:30:59;;;;;;;1.75;0.50;;;14.30;99.90;;;;;;10441666;28;20112;-91
2022/09/01 05:36:07;;;;;;;1.17;0.50;;;14.40;99.90;;;;;;10258584;28;20045;-93
2022/09/01 05:41:13;;;;;;;4.00;0.70;;;14.50;99.90;;;;;;10129059;28;20049;-91
2022/09/01 05:46:25;;;;;;;2.72;0.50;;;14.60;99.90;;;;;;10413814;28;20096;-89
2022/09/01 05:51:35;;;;;;;0.98;0.40;;;14.80;99.90;;;;;;10471759;28;20067;-90
2022/09/01 05:56:47;;;;;;;5.75;0.40;;;14.90;99.90;;;;;;10473259;28;20047;-90
2022/09/01 06:01:51;;;;;;;6.93;0.52;;;15.00;99.90;;;;;;10446332;28;20044;-89
2022/09/01 06:06:55;;;;;;;1.95;0.30;;;15.20;99.90;;;;;;10485033;28;20043;-92
2022/09/01 06:12:16;;;;;;;2.60;0.30;;;15.40;99.90;;;;;;10355251;28;20069;-92
2022/09/01 06:17:23;;;;;;;0.95;0.32;;;15.60;99.90;;;;;;10428878;28;20049;-91
2022/09/01 06:22:28;;;;;;;0.65;0.20;;;15.70;99.90;;;;;;10260027;28;20071;-89
2022/09/01 06:27:32;;;;;;;1.50;0.40;;;16.00;99.90;;;;;;10411590;28;20043;-92
2022/09/01 06:32:50;;;;;;;2.05;0.38;;;16.20;99.90;;;;;;10230943;28;20046;-91
2022/09/01 06:38:00;;;;;;;0.30;0.20;;;16.40;99.90;;;;;;10153847;28;20050;-92
2022/09/01 06:43:12;;;;;;;1.95;0.30;;;16.50;99.90;;;;;;10125227;28;20111;-91
2022/09/01 06:48:34;;;;;;;0.38;0.17;;;16.70;99.90;;;;;;10145351;28;21418;-89
2022/09/01 06:54:24;;;;;;;1.10;0.30;;;17.00;99.90;;;;;;10158986;28;20053;-88
2022/09/01 06:59:46;;;;;;;0.85;0.30;;;17.20;99.90;;;;;;10330907;28;20439;-89
2022/09/01 07:05:36;;;;;;;1.95;0.30;;;17.40;99.90;;;;;;10005912;28;20463;-90
2022/09/01 07:11:31;;;;;;;0.90;0.20;;;17.60;99.90;;;;;;10046987;28;20050;-90
2022/09/01 07:17:41;;;;;;;3.60;0.30;;;17.80;99.90;;;;;;10118322;28;20049;-90
2022/09/01 07:23:31;;;;;;;3.22;0.30;;;17.90;99.90;;;;;;9979741;28;20052;-91
2022/09/01 07:29:08;;;;;;;1.05;0.30;;;18.00;99.90;;;;;;10074962;28;20122;-91
2022/09/01 07:34:34;;;;;;;4.75;0.25;;;18.20;99.90;;;;;;10298324;28;20065;-91
2022/09/01 07:39:57;;;;;;;5.10;0.20;;;18.30;99.90;;;;;;10124676;28;20055;-90
2022/09/01 07:45:24;;;;;;;3.00;0.20;;;18.50;99.90;;;;;;10088651;28;21029;-91
2022/09/01 07:50:59;;;;;;;0.85;0.45;;;18.60;99.90;;;;;;10168516;28;20069;-90
2022/09/01 07:56:33;;;;;;;;;;;18.70;99.90;;;;;;10367613;28;20057;-90
2022/09/01 08:01:41;;;;;;;1.00;0.30;;;18.90;99.90;;;;;;10324334;28;19967;-90
2022/09/01 08:06:45;;;;;;;5.32;0.40;;;19.10;99.90;;;;;;10324377;28;20044;-90
2022/09/01 08:11:47;;;;;;;3.47;0.30;;;19.20;99.90;;;;;;10267863;28;20052;-89
2022/09/01 08:17:04;;;;;;;1.45;0.20;;;19.40;99.90;;;;;;10304969;28;20038;-91
2022/09/01 08:22:38;;;;;;;1.80;0.30;;;19.50;99.80;;;;;;10296939;28;20088;-89
2022/09/01 08:27:56;;;;;;;0.60;0.25;;;19.70;99.30;;;;;;10263280;28;20388;-89
2022/09/01 08:33:03;;;;;;;2.92;0.30;;;19.90;99.10;;;;;;10301359;28;20057;-90
2022/09/01 08:38:25;;;;;;;6.60;0.38;;;19.90;99.10;;;;;;10361393;28;20376;-91
2022/09/01 08:43:46;;;;;;;4.65;0.30;;;20.10;98.80;;;;;;10346022;28;20059;-91
2022/09/01 08:48:59;;;;;;;2.35;0.30;;;20.20;98.50;;;;;;10128940;28;20144;-92
2022/09/01 08:54:38;;;;;;;1.70;0.20;;;20.20;98.20;;;;;;10291621;28;20176;-92
2022/09/01 08:59:45;;;;;;;1.45;0.30;;;20.30;98.10;;;;;;10315886;28;20135;-91
2022/09/01 09:04:51;;;;;;;4.88;0.30;;;20.40;98.30;;;;;;10172599;28;20050;-90
2022/09/01 09:10:09;;;;;;;1.80;0.30;;;20.40;98.20;;;;;;10304094;28;20077;-91
2022/09/01 09:15:18;;;;;;;2.60;0.30;;;20.60;98.30;;;;;;10274118;28;20053;-91
2022/09/01 09:20:26;;;;;;;1.73;0.63;;;20.70;98.10;;;;;;10324103;28;20081;-92
2022/09/01 09:25:32;;;;;;;3.70;0.30;;;20.80;97.50;;;;;;10303996;28;20124;-92
2022/09/01 09:30:37;;;;;;;0.63;0.40;;;20.80;98.00;;;;;;10226409;28;20042;-92
2022/09/01 09:35:45;;;;;;;5.68;0.30;;;21.10;97.50;;;;;;10360244;28;20720;-91
2022/09/01 09:41:07;;;;;;;1.98;0.30;;;21.30;97.10;;;;;;10250081;28;20063;-92
2022/09/01 09:46:26;;;;;;;2.50;0.30;;;21.40;96.60;;;;;;10308909;28;20477;-91
2022/09/01 09:51:29;;;;;;;6.47;0.30;;;21.60;96.40;;;;;;10373963;28;20107;-92
2022/09/01 09:56:32;;;;;;;0.47;0.30;;;21.70;96.10;;;;;;10191164;28;20047;-91
2022/09/01 10:01:38;;;;;;;4.17;0.37;;;21.80;96.10;;;;;;10277316;28;20045;-91
2022/09/01 10:06:53;;;;;;;0.57;0.25;;;21.90;95.80;;;;;;10357229;28;20633;-92
2022/09/01 10:12:03;;;;;;;3.90;0.30;;;22.00;95.50;;;;;;10157948;28;20088;-93
2022/09/01 10:17:24;;;;;;;4.82;0.50;;;22.30;95.70;;;;;;10013976;28;20076;-91
2022/09/01 10:22:28;;;;;;;2.35;0.30;;;22.40;94.90;;;;;;10110672;28;20054;-92
2022/09/01 10:27:42;;;;;;;1.15;0.30;;;22.60;94.60;;;;;;10247195;28;20054;-93
2022/09/01 10:33:10;;;;;;;0.63;0.30;;;22.90;94.30;;;;;;10171216;28;20045;-92
2022/09/01 10:38:34;;;;;;;0.50;0.40;;;23.20;94.10;;;;;;10075951;28;20058;-91
2022/09/01 10:44:32;;;;;;;1.02;0.30;;;23.60;93.40;;;;;;10151443;28;20093;-91
2022/09/01 10:49:50;;;;;;;0.35;0.20;;;24.00;92.00;;;;;;10095601;28;20054;-92
2022/09/01 10:54:56;;;;;;;1.85;0.30;;;24.40;91.10;;;;;;10261050;28;20058;-91
2022/09/01 11:00:38;;;;;;;0.90;0.30;;;24.60;89.80;;;;;;10147367;28;20076;-92
2022/09/01 11:06:29;;;;;;;0.70;0.40;;;24.80;88.50;;;;;;9992475;28;20132;-91
2022/09/01 11:12:08;;;;;;;0.55;0.20;;;25.00;88.00;;;;;;10144774;28;20050;-91
2022/09/01 11:18:06;;;;;;;0.90;0.25;;;25.00;88.70;;;;;;10138192;28;20069;-91
2022/09/01 11:24:02;;;;;;;1.02;0.20;;;25.20;87.40;;;;;;10084713;28;20050;-91
2022/09/01 11:29:53;;;;;;;0.32;0.20;;;25.10;88.30;;;;;;10043433;28;20168;-92
2022/09/01 11:35:19;;;;;;;0.40;0.25;;;25.20;87.60;;;;;;10079804;28;20050;-92
2022/09/01 11:40:53;;;;;;;0.68;0.30;;;25.30;86.30;;;;;;10081585;28;20051;-91
2022/09/01 11:46:21;;;;;;;;;;;25.60;86.30;;;;;;10128213;28;20035;-90
2022/09/01 11:52:20;;;;;;;2.25;0.20;;;25.80;84.50;;;;;;9930448;28;19957;-92
2022/09/01 11:57:43;;;;;;;0.73;0.20;;;25.90;84.80;;;;;;9935456;28;20770;-92
2022/09/01 12:03:51;;;;;;;2.38;0.38;;;26.10;83.80;;;;;;9997814;28;20029;-92
2022/09/01 12:09:04;;;;;;;4.20;0.30;;;26.40;81.00;;;;;;10107111;28;20034;-91
2022/09/01 12:14:14;;;;;;;2.45;0.30;;;26.70;78.80;;;;;;9911939;28;20090;-91
2022/09/01 12:20:11;;;;;;;0.22;0.20;;;26.80;77.60;;;;;;9973488;28;20074;-91
2022/09/01 12:26:16;;;;;;;0.35;0.30;;;26.90;78.00;;;;;;9969937;28;20048;-92
2022/09/01 12:31:30;;;;;;;2.17;0.30;;;26.80;79.00;;;;;;9922243;28;20056;-91
2022/09/01 12:37:05;;;;;;;3.03;0.20;;;26.50;77.50;;;;;;9836698;28;20057;-91
2022/09/01 12:42:30;;;;;;;2.78;0.30;;;26.60;78.40;;;;;;10083091;28;20062;-91
2022/09/01 12:47:48;;;;;;;0.82;0.30;;;26.70;76.80;;;;;;10041024;28;20052;-91
2022/09/01 12:53:13;;;;;;;0.95;0.30;;;26.90;76.80;;;;;;10058643;28;20560;-91
2022/09/01 12:58:31;;;;;;;0.93;0.28;;;27.10;76.80;;;;;;9976462;28;20050;-91
2022/09/01 13:03:36;;;;;;;6.43;0.40;;;26.70;76.80;;;;;;10120885;28;20049;-90
2022/09/01 13:08:39;;;;;;;2.78;0.30;;;26.40;76.50;;;;;;10088869;28;20140;-92
2022/09/01 13:13:46;;;;;;;1.38;0.50;;;26.60;76.70;;;;;;10182455;28;20049;-91
2022/09/01 13:18:50;;;;;;;0.73;0.30;;;26.80;75.60;;;;;;10086471;28;20107;-90
2022/09/01 13:24:12;;;;;;;4.93;0.30;;;26.40;74.20;;;;;;10123266;28;20049;-91
2022/09/01 13:29:28;;;;;;;0.50;0.32;;;26.50;76.80;;;;;;10158679;28;20057;-91
2022/09/01 13:34:38;;;;;;;1.80;0.30;;;27.00;74.60;;;;;;10255148;28;20038;-92
2022/09/01 13:39:55;;;;;;;0.65;0.30;;;27.20;72.70;;;;;;10180173;28;20057;-91
2022/09/01 13:45:06;;;;;;;0.22;0.20;;;27.10;72.40;;;;;;10325311;28;20036;-91
2022/09/01 13:50:10;;;;;;;1.92;0.30;;;27.10;72.50;;;;;;10446198;28;20076;-91
2022/09/01 13:55:39;;;;;;;0.50;0.20;;;26.90;73.50;;;;;;10241024;28;20045;-91
2022/09/01 14:00:45;;;;;;;1.85;0.40;;;26.90;73.80;;;;;;10309124;28;20053;-91
2022/09/01 14:05:49;;;;;;;1.93;0.30;;;26.80;72.80;;;;;;10295387;28;20049;-91
2022/09/01 14:11:23;;;;;;;0.40;0.30;;;26.80;71.90;;;;;;10253758;28;20814;-92
2022/09/01 14:16:29;;;;;;;0.85;0.30;;;26.70;71.00;;;;;;10361149;28;20448;-91
2022/09/01 14:21:31;;;;;;;0.50;0.30;;;26.70;72.80;;;;;;10181085;28;20130;-91
2022/09/01 14:26:35;;;;;;;0.50;0.22;;;27.30;73.60;;;;;;10390603;28;20108;-92
2022/09/01 14:31:42;;;;;;;0.60;0.30;;;27.70;69.50;;;;;;10305576;28;20046;-89
2022/09/01 14:37:15;;;;;;;0.47;0.30;;;28.00;69.60;;;;;;10202652;28;20037;-90
2022/09/01 14:42:19;;;;;;;0.60;0.30;;;28.60;67.50;;;;;;10253281;28;20185;-91
2022/09/01 14:47:25;;;;;;;1.25;0.40;;;28.80;68.10;;;;;;10165280;28;20050;-90
2022/09/01 14:52:32;;;;;;;3.13;0.20;;;29.10;65.30;;;;;;10073252;28;20041;-90
2022/09/01 14:57:53;;;;;;;1.20;0.50;;;29.10;65.70;;;;;;10129668;28;20049;-92
2022/09/01 15:03:12;;;;;;;3.60;0.20;;;29.20;63.50;;;;;;10131533;28;20059;-90
2022/09/01 15:08:39;;;;;;;0.85;0.20;;;29.00;63.60;;;;;;10226026;28;20047;-89
2022/09/01 15:14:04;;;;;;;2.97;0.32;;;28.70;64.40;;;;;;10139943;28;20033;-90
2022/09/01 15:19:21;;;;;;;5.95;0.30;;;28.70;65.40;;;;;;10146861;28;20051;-91
2022/09/01 15:24:23;;;;;;;7.05;0.30;;;28.30;63.70;;;;;;10326620;28;20113;-91
2022/09/01 15:29:56;;;;;;;2.22;0.85;;;28.20;64.00;;;;;;10236134;28;20064;-91
2022/09/01 15:35:22;;;;;;;0.47;0.30;;;27.90;65.70;;;;;;10049735;28;20129;-91
2022/09/01 15:40:27;;;;;;;2.75;0.40;;;27.60;64.80;;;;;;10008852;28;20065;-91
2022/09/01 15:45:40;;;;;;;3.17;0.30;;;27.40;65.80;;;;;;10082624;28;20047;-92
2022/09/01 15:51:02;;;;;;;1.00;0.35;;;27.20;66.40;;;;;;10027482;28;20099;-92
2022/09/01 16:02:42;;;;;;;0.45;0.35;;;26.70;66.20;;;;;;9938036;28;20093;-91
2022/09/01 16:07:50;;;;;;;1.85;0.30;;;26.50;65.70;;;;;;10006649;28;20029;-90
2022/09/01 16:12:54;;;;;;;2.38;0.30;;;26.40;66.40;;;;;;10138098;28;20504;-90
2022/09/01 16:18:40;;;;;;;0.80;0.38;;;26.30;66.20;;;;;;9906498;28;20061;-92
2022/09/01 16:24:13;;;;;;;1.52;0.30;;;26.10;67.20;;;;;;10032766;28;20050;-91
2022/09/01 16:29:51;;;;;;;0.93;0.70;;;26.20;65.40;;;;;;10054139;28;20042;-91
2022/09/01 16:35:44;;;;;;;0.77;0.40;;;26.20;66.90;;;;;;9983510;28;20072;-90
2022/09/01 16:41:48;;;;;;;0.82;0.30;;;26.20;66.40;;;;;;10110818;28;20607;-91
2022/09/01 16:48:35;;;;;;;0.80;0.30;;;26.30;66.80;;;;;;9989210;28;20040;-91
2022/09/01 16:54:28;;;;;;;0.73;0.30;;;26.50;65.30;;;;;;9964197;28;20050;-91
2022/09/01 17:00:12;;;;;;;0.40;0.30;;;26.60;67.20;;;;;;10033444;28;20039;-91
2022/09/01 17:05:35;;;;;;;3.47;0.40;;;26.60;66.50;;;;;;10063220;28;20042;-91
2022/09/01 17:11:19;;;;;;;1.23;0.30;;;26.50;66.40;;;;;;9992325;28;20041;-92
2022/09/01 17:16:43;;;;;;;1.58;0.30;;;26.40;66.70;;;;;;10043942;28;20049;-91
2022/09/01 17:22:12;;;;;;;0.75;0.20;;;26.20;66.40;;;;;;10025288;28;20045;-92
2022/09/01 17:27:35;;;;;;;0.45;0.30;;;26.10;66.60;;;;;;9949840;28;20510;-92
2022/09/01 17:33:40;;;;;;;1.40;0.38;;;25.90;66.90;;;;;;10003985;28;20056;-91
2022/09/01 17:40:14;;;;;;;2.03;0.30;;;25.60;67.30;;;;;;10120866;28;20257;-91
2022/09/01 17:45:55;;;;;;;0.75;0.30;;;25.30;67.60;;;;;;9928708;28;20096;-91
2022/09/01 17:51:19;;;;;;;2.70;0.43;;;25.10;68.40;;;;;;9996777;28;20221;-91
2022/09/01 17:56:49;;;;;;;0.75;0.30;;;24.80;68.70;;;;;;10097470;28;20151;-92
2022/09/01 18:02:57;;;;;;;1.65;0.30;;;24.60;69.70;;;;;;10080195;28;20030;-91
2022/09/01 18:08:29;;;;;;;1.17;0.45;;;24.30;69.60;;;;;;10322595;28;20044;-90
2022/09/01 18:14:13;;;;;;;1.23;0.40;;;24.10;70.60;;;;;;10214635;28;20037;-90
2022/09/01 18:19:22;;;;;;;1.00;0.40;;;23.80;70.70;;;;;;10372189;28;20025;-90
2022/09/01 18:24:38;;;;;;;1.48;0.40;;;23.60;71.40;;;;;;10453474;28;20072;-89
2022/09/01 18:29:41;;;;;;;;;;;23.30;72.00;;;;;;10396522;28;20041;-90
2022/09/01 18:35:17;;;;;;;2.75;0.60;;;23.10;72.90;;;;;;10327539;28;19944;-90
2022/09/01 18:40:42;;;;;;;0.63;0.30;;;22.90;72.20;;;;;;10377034;28;20097;-90
2022/09/01 18:46:46;;;;;;;3.22;0.30;;;22.60;72.50;;;;;;10184100;28;20062;-90
2022/09/01 18:52:59;;;;;;;0.25;0.20;;;22.30;72.70;;;;;;10181963;28;20041;-88
2022/09/01 18:58:08;;;;;;;1.98;0.30;;;22.10;73.40;;;;;;10246593;28;20133;-92
2022/09/01 19:03:31;;;;;;;1.02;0.35;;;21.90;73.70;;;;;;9989026;28;20045;-91
2022/09/01 19:09:26;;;;;;;0.50;0.30;;;21.70;74.50;;;;;;10000505;28;20069;-91
2022/09/01 19:15:24;;;;;;;7.30;0.40;;;21.50;74.40;;;;;;9988499;28;20041;-91
2022/09/01 19:21:03;;;;;;;2.15;0.30;;;21.40;75.40;;;;;;10003145;28;20041;-91
2022/09/01 19:26:15;;;;;;;0.73;0.20;;;21.20;75.50;;;;;;10117678;28;20069;-91
2022/09/01 19:31:45;;;;;;;2.22;0.50;;;21.10;76.60;;;;;;10011355;28;20149;-91
2022/09/01 19:36:55;;;;;;;1.75;0.50;;;21.00;77.90;;;;;;10445208;28;20044;-91
2022/09/01 19:42:22;;;;;;;2.53;0.30;;;20.80;77.50;;;;;;10395781;28;20073;-91
2022/09/01 19:47:46;;;;;;;3.13;0.40;;;20.70;77.80;;;;;;10420864;28;20135;-91
2022/09/01 19:52:55;;;;;;;1.42;0.50;;;20.60;77.90;;;;;;10346598;28;20538;-91
2022/09/01 19:58:34;;;;;;;3.05;0.77;;;20.50;78.50;;;;;;10307035;28;20076;-91
2022/09/01 20:03:48;;;;;;;1.75;0.25;;;20.40;79.40;;;;;;10374713;28;20063;-92
2022/09/01 20:09:09;;;;;;;4.78;0.38;;;20.30;79.50;;;;;;10412694;28;20052;-91
2022/09/01 20:14:31;;;;;;;2.13;0.30;;;20.20;79.40;;;;;;10342950;28;20048;-90
2022/09/01 20:19:48;;;;;;;1.58;0.40;;;20.10;79.80;;;;;;10392811;28;20254;-91
2022/09/01 20:24:51;;;;;;;4.75;0.77;;;20.00;79.40;;;;;;10481575;28;20050;-91
2022/09/01 20:30:08;;;;;;;4.30;0.30;;;20.00;79.50;;;;;;10477592;28;20106;-90
2022/09/01 20:35:20;;;;;;;1.20;0.20;;;19.90;79.80;;;;;;10497930;28;20087;-90
2022/09/01 20:40:29;;;;;;;0.65;0.40;;;19.90;80.10;;;;;;10462617;28;20089;-90
2022/09/01 20:45:31;;;;;;;3.80;0.32;;;19.90;80.30;;;;;;10480005;28;20055;-91
2022/09/01 20:51:06;;;;;;;1.00;0.20;;;20.00;81.20;;;;;;10468461;28;20560;-91
2022/09/01 20:56:13;;;;;;;0.55;0.20;;;20.00;80.50;;;;;;10494201;28;20048;-91
2022/09/01 21:01:21;;;;;;;4.80;0.40;;;20.00;80.80;;;;;;10496564;28;20106;-91
2022/09/01 21:06:50;;;;;;;1.77;0.28;;;19.90;80.80;;;;;;10482298;28;20056;-91
2022/09/01 21:12:33;;;;;;;2.25;0.30;;;20.00;81.40;;;;;;10429688;28;20041;-91
2022/09/01 21:17:40;;;;;;;0.60;0.30;;;20.00;81.20;;;;;;10309482;28;20048;-86
2022/09/01 21:22:42;;;;;;;1.85;0.20;;;19.90;81.20;;;;;;10504958;28;20123;-85
2022/09/01 21:27:56;;;;;;;1.52;0.30;;;19.90;81.50;;;;;;10481120;28;20051;-86
2022/09/01 21:32:58;;;;;;;0.20;0.20;;;19.90;81.80;;;;;;10502687;28;20131;-86
2022/09/01 21:38:00;;;;;;;2.55;0.20;;;19.90;82.20;;;;;;10493739;28;20036;-86
2022/09/01 21:43:12;;;;;;;2.47;0.30;;;19.90;82.60;;;;;;10488527;28;20465;-86
2022/09/01 21:48:15;;;;;;;0.70;0.40;;;19.80;82.80;;;;;;10486506;28;20234;-85
2022/09/01 21:53:19;;;;;;;1.10;0.20;;;19.80;83.10;;;;;;10500979;28;20072;-85
2022/09/01 21:58:20;;;;;;;0.63;0.20;;;19.70;83.90;;;;;;10478494;28;20043;-86
2022/09/01 22:03:22;;;;;;;0.85;0.25;;;19.70;84.00;;;;;;10489984;28;20044;-86
2022/09/01 22:08:25;;;;;;;1.48;0.20;;;19.70;84.60;;;;;;10511576;28;20037;-86
2022/09/01 22:13:26;;;;;;;0.90;0.30;;;19.60;84.90;;;;;;10493160;28;20054;-86
2022/09/01 22:18:28;;;;;;;0.63;0.25;;;19.60;84.40;;;;;;10504901;28;20054;-86
2022/09/01 22:23:30;;;;;;;1.30;0.40;;;19.50;84.70;;;;;;10488168;28;20048;-85
2022/09/01 22:28:32;;;;;;;2.92;0.30;;;19.50;86.20;;;;;;10457332;28;20049;-85
2022/09/01 22:33:34;;;;;;;1.52;0.30;;;19.40;85.50;;;;;;10493060;28;20131;-84
2022/09/01 22:38:36;;;;;;;0.52;0.22;;;19.30;85.90;;;;;;10462512;28;20060;-84
2022/09/01 22:43:37;;;;;;;2.90;0.25;;;19.20;85.80;;;;;;10496203;28;20396;-84
2022/09/01 22:48:39;;;;;;;1.20;0.65;;;19.10;86.20;;;;;;10497724;28;20040;-84
2022/09/01 22:53:44;;;;;;;0.30;0.20;;;18.90;86.70;;;;;;10483887;28;20040;-84
2022/09/01 22:58:47;;;;;;;0.68;0.20;;;18.80;87.10;;;;;;10497524;28;20048;-85
2022/09/01 23:03:49;;;;;;;0.35;0.20;;;18.70;87.60;;;;;;10469515;28;20034;-84
2022/09/01 23:08:53;;;;;;;0.40;0.30;;;18.60;88.00;;;;;;10476261;28;20048;-85
2022/09/01 23:13:55;;;;;;;0.95;0.38;;;18.50;88.60;;;;;;10487277;28;20063;-84
2022/09/01 23:18:57;;;;;;;0.35;0.25;;;18.40;89.20;;;;;;10484053;28;20526;-84
2022/09/01 23:23:59;;;;;;;2.90;0.40;;;18.30;89.60;;;;;;10495975;28;20044;-84
2022/09/01 23:29:03;;;;;;;0.47;0.30;;;18.20;90.00;;;;;;10493623;28;20059;-84
2022/09/01 23:34:07;;;;;;;0.60;0.20;;;18.10;90.40;;;;;;10470982;28;20070;-84
2022/09/01 23:39:08;;;;;;;0.65;0.30;;;18.00;90.70;;;;;;10484351;28;20048;-84
2022/09/01 23:44:10;;;;;;;0.60;0.30;;;17.90;90.80;;;;;;10500674;28;20074;-84
2022/09/01 23:49:14;;;;;;;0.47;0.20;;;17.90;90.90;;;;;;10468038;28;20050;-84
2022/09/01 23:54:16;;;;;;;2.38;0.32;;;17.80;91.00;;;;;;10452162;28;20497;-84
2022/09/01 23:59:18;;;;;;;0.40;0.30;;;17.80;91.20;;;;;;10498792;28;20482;-84
